Terminal Aerodrome Forecast
Issued by NWS Wilmington, OH

Current Version | Previous Version | Graphics & Text | Print | Product List | Glossary On
Versions: 1 2 3 4 5 6 7 8 9 10 11 12 13 14 15
263
FTUS41 KILN 201125
TAFILN
TAF
KILN 201125Z 2012/2112 17005KT P6SM FEW250
     FM210000 15004KT P6SM SCT250
     FM210800 00000KT 4SM BR SCT250=

USA.gov is the U.S. government's official web portal to all federal, state and local government web resources and services.